Moreno Valley, California
Current Conditions -  °F | °C
As of 8:58 AM on Tuesday 27 Jan 2015 (Local Time) from KRIV Reporting Station
Clear Clear  
Wind Chill: 58°   Ceiling: Unl
Heat Index: 58°   Visibility: 10mi
Dew Point: 56°   Wind: 7mph
Humidity: 92%   Direction: 130°SE
Pressure: 30.21"   Gusts: NA
Location:  33.92°N, 117.26°W
Report Text: KRIV 271658Z AUTO 13006KT 10SM CLR 15/13 A3021 RMK AO2 SLP227 T01460133 $
Loading
Personal Weather Stations






























Interactive Weather Map New forecast layout! Learn more

10-Day Weather Forecast

Advertisements
Track Severe Weather on mobile